Time,TemperatureF,DewpointF,PressureIn,WindDirection,WindDirectionDegrees,WindSpeedMPH,WindSpeedGustMPH,Humidity,HourlyPrecipIn,Conditions,Clouds,dailyrainin,SolarRadiationWatts/m^2,SoftwareType,DateUTC
2013-03-16 00:13:00,47.0,31.0,-100.00,NE,54,1.0,5.0,54,0.00,,,0.00,0.000000,,2013-03-16 04:13:00,
2013-03-16 00:23:00,47.0,31.0,-100.00,NE,54,1.0,5.0,54,0.00,,,0.00,0.000000,,2013-03-16 04:23:00,
2013-03-16 00:33:00,47.0,31.0,-100.00,NE,54,1.0,5.0,54,0.00,,,0.00,0.000000,,2013-03-16 04:33:00,
2013-03-16 00:43:00,47.0,31.0,-100.00,NE,54,1.0,5.0,54,0.00,,,0.00,0.000000,,2013-03-16 04:43:00,
2013-03-16 00:52:00,45.0,31.0,-100.00,WNW,286,0.0,3.0,58,0.00,,,0.00,0.000000,,2013-03-16 04:52:00,
2013-03-16 01:12:00,45.0,31.0,-100.00,WNW,286,0.0,3.0,58,0.00,,,0.00,0.000000,,2013-03-16 05:12:00,
2013-03-16 01:22:00,45.0,31.0,-100.00,WNW,286,0.0,3.0,58,0.00,,,0.00,0.000000,,2013-03-16 05:22:00,
2013-03-16 01:32:00,45.0,31.0,-100.00,WNW,286,0.0,3.0,58,0.00,,,0.00,0.000000,,2013-03-16 05:32:00,
2013-03-16 01:42:00,45.0,31.0,-100.00,WNW,286,0.0,3.0,58,0.00,,,0.00,0.000000,,2013-03-16 05:42:00,
2013-03-16 01:52:00,45.0,32.0,-100.00,NW,314,0.0,2.0,61,0.00,,,0.00,0.000000,,2013-03-16 05:52:00,
2013-03-16 02:22:00,45.0,32.0,-100.00,NW,314,0.0,2.0,61,0.00,,,0.00,0.000000,,2013-03-16 06:22:00,
2013-03-16 02:32:00,45.0,32.0,-100.00,NW,314,0.0,2.0,61,0.00,,,0.00,0.000000,,2013-03-16 06:32:00,
2013-03-16 02:42:00,45.0,32.0,-100.00,NW,314,0.0,2.0,61,0.00,,,0.00,0.000000,,2013-03-16 06:42:00,
2013-03-16 02:52:00,45.0,33.0,-100.00,ESE,122,0.0,0.0,62,0.00,,,0.00,0.000000,,2013-03-16 06:52:00,
2013-03-16 03:22:00,45.0,33.0,-100.00,ESE,122,0.0,0.0,62,0.00,,,0.00,0.000000,,2013-03-16 07:22:00,
2013-03-16 03:32:00,45.0,33.0,-100.00,ESE,122,0.0,0.0,62,0.00,,,0.00,0.000000,,2013-03-16 07:32:00,
2013-03-16 03:42:00,45.0,33.0,-100.00,ESE,122,0.0,0.0,62,0.00,,,0.00,0.000000,,2013-03-16 07:42:00,
2013-03-16 03:52:00,42.0,32.0,-100.00,NNE,30,0.0,0.0,68,0.00,,,0.00,0.000000,,2013-03-16 07:52:00,
2013-03-16 04:23:00,42.0,32.0,-100.00,NNE,30,0.0,0.0,68,0.00,,,0.00,0.000000,,2013-03-16 08:23:00,
2013-03-16 04:33:00,42.0,32.0,-100.00,NNE,30,0.0,0.0,68,0.00,,,0.00,0.000000,,2013-03-16 08:33:00,
2013-03-16 04:42:00,42.0,32.0,-100.00,NNE,30,0.0,0.0,68,0.00,,,0.00,0.000000,,2013-03-16 08:42:00,
2013-03-16 04:52:00,43.0,33.0,-100.00,NNE,17,0.0,2.0,68,0.00,,,0.00,0.000000,,2013-03-16 08:52:00,
2013-03-16 05:12:00,43.0,33.0,-100.00,NNE,17,0.0,2.0,68,0.00,,,0.00,0.000000,,2013-03-16 09:12:00,
2013-03-16 05:22:00,43.0,33.0,-100.00,NNE,17,0.0,2.0,68,0.00,,,0.00,0.000000,,2013-03-16 09:22:00,
2013-03-16 05:33:00,43.0,33.0,-100.00,NNE,17,0.0,2.0,68,0.00,,,0.00,0.000000,,2013-03-16 09:33:00,
2013-03-16 05:42:00,43.0,33.0,-100.00,NNE,17,0.0,2.0,68,0.00,,,0.00,0.000000,,2013-03-16 09:42:00,
2013-03-16 05:52:00,47.0,35.0,-100.00,WSW,246,0.0,1.0,64,0.00,,,0.00,0.000000,,2013-03-16 09:52:00,
2013-03-16 06:12:00,47.0,35.0,-100.00,WSW,246,0.0,1.0,64,0.00,,,0.00,0.000000,,2013-03-16 10:12:00,
2013-03-16 06:23:00,47.0,35.0,-100.00,WSW,246,0.0,1.0,64,0.00,,,0.00,0.000000,,2013-03-16 10:23:00,
2013-03-16 06:32:00,47.0,35.0,-100.00,WSW,246,0.0,1.0,64,0.00,,,0.00,0.000000,,2013-03-16 10:32:00,
2013-03-16 06:42:00,47.0,35.0,-100.00,WSW,246,0.0,1.0,64,0.00,,,0.00,0.000000,,2013-03-16 10:42:00,
2013-03-16 06:52:00,47.0,36.0,-100.00,NNW,328,0.0,3.0,65,0.00,,,0.00,0.000000,,2013-03-16 10:52:00,
2013-03-16 07:22:00,47.0,36.0,-100.00,NNW,328,0.0,3.0,65,0.00,,,0.00,0.000000,,2013-03-16 11:22:00,
2013-03-16 07:33:00,47.0,36.0,-100.00,NNW,328,0.0,3.0,65,0.00,,,0.00,0.000000,,2013-03-16 11:33:00,
2013-03-16 07:43:00,47.0,36.0,-100.00,NNW,328,0.0,3.0,65,0.00,,,0.00,0.000000,,2013-03-16 11:43:00,
2013-03-16 07:52:00,47.0,37.0,-100.00,NNW,333,0.0,2.0,67,0.00,,,0.00,6.000000,,2013-03-16 11:52:00,
2013-03-16 08:12:00,47.0,37.0,-100.00,NNW,333,0.0,2.0,67,0.00,,,0.00,6.000000,,2013-03-16 12:12:00,
2013-03-16 08:22:00,47.0,37.0,-100.00,NNW,333,0.0,2.0,67,0.00,,,0.00,6.000000,,2013-03-16 12:22:00,
2013-03-16 08:32:00,47.0,37.0,-100.00,NNW,333,0.0,2.0,67,0.00,,,0.00,6.000000,,2013-03-16 12:32:00,
2013-03-16 08:42:00,47.0,37.0,-100.00,NNW,333,0.0,2.0,67,0.00,,,0.00,6.000000,,2013-03-16 12:42:00,
2013-03-16 08:52:00,48.0,38.0,-100.00,ESE,105,1.0,3.0,68,0.00,,,0.00,38.000000,,2013-03-16 12:52:00,
2013-03-16 09:12:00,48.0,38.0,-100.00,ESE,105,1.0,3.0,68,0.00,,,0.00,38.000000,,2013-03-16 13:12:00,
2013-03-16 09:23:00,48.0,38.0,-100.00,ESE,105,1.0,3.0,68,0.00,,,0.00,38.000000,,2013-03-16 13:23:00,
2013-03-16 09:32:00,48.0,38.0,-100.00,ESE,105,1.0,3.0,68,0.00,,,0.00,38.000000,,2013-03-16 13:32:00,
2013-03-16 09:42:00,48.0,38.0,-100.00,ESE,105,1.0,3.0,68,0.00,,,0.00,38.000000,,2013-03-16 13:42:00,
2013-03-16 09:52:00,48.0,42.0,-100.00,NNW,331,1.0,5.0,80,0.00,,,0.00,46.000000,,2013-03-16 13:52:00,
2013-03-16 10:22:00,48.0,42.0,-100.00,NNW,331,1.0,5.0,80,0.00,,,0.00,46.000000,,2013-03-16 14:22:00,
2013-03-16 10:32:00,48.0,42.0,-100.00,NNW,331,1.0,5.0,80,0.00,,,0.00,46.000000,,2013-03-16 14:32:00,
2013-03-16 10:42:00,48.0,42.0,-100.00,NNW,331,1.0,5.0,80,0.00,,,0.00,46.000000,,2013-03-16 14:42:00,
2013-03-16 10:52:00,64.0,47.0,-100.00,North,352,2.0,4.0,55,0.00,,,0.00,370.000000,,2013-03-16 14:52:00,
2013-03-16 11:13:00,64.0,47.0,-100.00,North,352,2.0,4.0,55,0.00,,,0.00,370.000000,,2013-03-16 15:13:00,
2013-03-16 11:23:00,64.0,47.0,-100.00,North,352,2.0,4.0,55,0.00,,,0.00,370.000000,,2013-03-16 15:23:00,
2013-03-16 11:33:00,64.0,47.0,-100.00,North,352,2.0,4.0,55,0.00,,,0.00,370.000000,,2013-03-16 15:33:00,
2013-03-16 11:43:00,64.0,47.0,-100.00,North,352,2.0,4.0,55,0.00,,,0.00,370.000000,,2013-03-16 15:43:00,
2013-03-16 11:52:00,70.0,45.0,-100.00,NNE,22,3.0,25.0,40,0.00,,,0.00,564.000000,,2013-03-16 15:52:00,
2013-03-16 12:23:00,70.0,45.0,-100.00,NNE,22,3.0,25.0,40,0.00,,,0.00,564.000000,,2013-03-16 16:23:00,
2013-03-16 12:33:00,70.0,45.0,-100.00,NNE,22,3.0,25.0,40,0.00,,,0.00,564.000000,,2013-03-16 16:33:00,
2013-03-16 12:42:00,70.0,45.0,-100.00,NNE,22,3.0,25.0,40,0.00,,,0.00,564.000000,,2013-03-16 16:42:00,
2013-03-16 12:52:00,78.0,47.0,-100.00,West,277,1.0,13.0,33,0.00,,,0.00,731.000000,,2013-03-16 16:52:00,
2013-03-16 13:13:00,78.0,47.0,-100.00,West,277,1.0,13.0,33,0.00,,,0.00,731.000000,,2013-03-16 17:13:00,
2013-03-16 13:23:00,78.0,47.0,-100.00,West,277,1.0,13.0,33,0.00,,,0.00,731.000000,,2013-03-16 17:23:00,
2013-03-16 13:33:00,78.0,47.0,-100.00,West,277,1.0,13.0,33,0.00,,,0.00,731.000000,,2013-03-16 17:33:00,
2013-03-16 13:43:00,78.0,47.0,-100.00,West,277,1.0,13.0,33,0.00,,,0.00,731.000000,,2013-03-16 17:43:00,
2013-03-16 13:52:00,78.0,44.0,-100.00,NE,35,4.0,15.0,30,0.00,,,0.00,839.000000,,2013-03-16 17:52:00,
2013-03-16 14:23:00,78.0,44.0,-100.00,NE,35,4.0,15.0,30,0.00,,,0.00,839.000000,,2013-03-16 18:23:00,
2013-03-16 14:33:00,78.0,44.0,-100.00,NE,35,4.0,15.0,30,0.00,,,0.00,839.000000,,2013-03-16 18:33:00,
2013-03-16 14:43:00,78.0,44.0,-100.00,NE,35,4.0,15.0,30,0.00,,,0.00,839.000000,,2013-03-16 18:43:00,
2013-03-16 14:52:00,75.0,44.0,-100.00,NE,38,4.0,16.0,33,0.00,,,0.00,548.000000,,2013-03-16 18:52:00,
2013-03-16 15:12:00,75.0,44.0,-100.00,NE,38,4.0,16.0,33,0.00,,,0.00,548.000000,,2013-03-16 19:12:00,
2013-03-16 15:22:00,75.0,44.0,-100.00,NE,38,4.0,16.0,33,0.00,,,0.00,548.000000,,2013-03-16 19:22:00,
2013-03-16 15:33:00,75.0,44.0,-100.00,NE,38,4.0,16.0,33,0.00,,,0.00,548.000000,,2013-03-16 19:33:00,
2013-03-16 15:42:00,75.0,44.0,-100.00,NE,38,4.0,16.0,33,0.00,,,0.00,548.000000,,2013-03-16 19:42:00,
2013-03-16 15:52:00,77.0,44.0,-100.00,NW,310,1.0,13.0,31,0.00,,,0.00,450.000000,,2013-03-16 19:52:00,
2013-03-16 16:22:00,77.0,44.0,-100.00,NW,310,1.0,13.0,31,0.00,,,0.00,450.000000,,2013-03-16 20:22:00,
2013-03-16 16:33:00,77.0,44.0,-100.00,NW,310,1.0,13.0,31,0.00,,,0.00,450.000000,,2013-03-16 20:33:00,
2013-03-16 16:42:00,77.0,44.0,-100.00,NW,310,1.0,13.0,31,0.00,,,0.00,450.000000,,2013-03-16 20:42:00,
2013-03-16 16:52:00,77.0,44.0,-100.00,SSE,160,2.0,14.0,31,0.00,,,0.00,400.000000,,2013-03-16 20:52:00,
2013-03-16 17:12:00,77.0,44.0,-100.00,SSE,160,2.0,14.0,31,0.00,,,0.00,400.000000,,2013-03-16 21:12:00,
2013-03-16 17:23:00,77.0,44.0,-100.00,SSE,160,2.0,14.0,31,0.00,,,0.00,400.000000,,2013-03-16 21:23:00,
2013-03-16 17:33:00,77.0,44.0,-100.00,SSE,160,2.0,14.0,31,0.00,,,0.00,400.000000,,2013-03-16 21:33:00,
2013-03-16 17:43:00,77.0,44.0,-100.00,SSE,160,2.0,14.0,31,0.00,,,0.00,400.000000,,2013-03-16 21:43:00,
2013-03-16 17:52:00,75.0,44.0,-100.00,NNW,347,2.0,15.0,33,0.00,,,0.00,233.000000,,2013-03-16 21:52:00,
2013-03-16 18:23:00,75.0,44.0,-100.00,NNW,347,2.0,15.0,33,0.00,,,0.00,233.000000,,2013-03-16 22:23:00,
2013-03-16 18:33:00,75.0,44.0,-100.00,NNW,347,2.0,15.0,33,0.00,,,0.00,233.000000,,2013-03-16 22:33:00,
2013-03-16 18:42:00,75.0,44.0,-100.00,NNW,347,2.0,15.0,33,0.00,,,0.00,233.000000,,2013-03-16 22:42:00,
2013-03-16 18:52:00,73.0,42.0,-100.00,ESE,114,2.0,11.0,33,0.00,,,0.00,140.000000,,2013-03-16 22:52:00,
2013-03-16 19:13:00,73.0,42.0,-100.00,ESE,114,2.0,11.0,33,0.00,,,0.00,140.000000,,2013-03-16 23:13:00,
2013-03-16 19:23:00,73.0,42.0,-100.00,ESE,114,2.0,11.0,33,0.00,,,0.00,140.000000,,2013-03-16 23:23:00,
2013-03-16 19:33:00,73.0,42.0,-100.00,ESE,114,2.0,11.0,33,0.00,,,0.00,140.000000,,2013-03-16 23:33:00,
2013-03-16 19:42:00,73.0,42.0,-100.00,ESE,114,2.0,11.0,33,0.00,,,0.00,140.000000,,2013-03-16 23:42:00,
2013-03-16 19:52:00,69.0,44.0,-100.00,ESE,110,6.0,18.0,40,0.00,,,0.00,9.000000,,2013-03-16 23:52:00,
2013-03-16 20:13:00,69.0,44.0,-100.00,ESE,110,6.0,18.0,40,0.00,,,0.00,9.000000,,2013-03-17 00:13:00,
2013-03-16 20:23:00,69.0,44.0,-100.00,ESE,110,6.0,18.0,40,0.00,,,0.00,9.000000,,2013-03-17 00:23:00,
2013-03-16 20:33:00,69.0,44.0,-100.00,ESE,110,6.0,18.0,40,0.00,,,0.00,9.000000,,2013-03-17 00:33:00,
2013-03-16 20:42:00,69.0,44.0,-100.00,ESE,110,6.0,18.0,40,0.00,,,0.00,9.000000,,2013-03-17 00:42:00,
2013-03-16 20:52:00,57.0,57.0,-100.00,SSW,208,0.0,21.0,99,0.02,,,0.02,0.000000,,2013-03-17 00:52:00,
2013-03-16 21:12:00,57.0,57.0,-100.00,SSW,208,0.0,21.0,99,0.02,,,0.02,0.000000,,2013-03-17 01:12:00,
2013-03-16 21:22:00,57.0,57.0,-100.00,SSW,208,0.0,21.0,99,0.02,,,0.02,0.000000,,2013-03-17 01:22:00,
2013-03-16 21:32:00,57.0,57.0,-100.00,SSW,208,0.0,21.0,99,0.02,,,0.02,0.000000,,2013-03-17 01:32:00,
2013-03-16 21:42:00,57.0,57.0,-100.00,SSW,208,0.0,21.0,99,0.02,,,0.02,0.000000,,2013-03-17 01:42:00,
2013-03-16 21:52:00,58.0,58.0,-100.00,ENE,78,1.0,7.0,99,0.00,,,0.02,0.000000,,2013-03-17 01:52:00,
2013-03-16 22:23:00,58.0,58.0,-100.00,ENE,78,1.0,7.0,99,0.00,,,0.02,0.000000,,2013-03-17 02:23:00,
2013-03-16 22:33:00,58.0,58.0,-100.00,ENE,78,1.0,7.0,99,0.00,,,0.02,0.000000,,2013-03-17 02:33:00,
2013-03-16 22:43:00,58.0,58.0,-100.00,ENE,78,1.0,7.0,99,0.00,,,0.02,0.000000,,2013-03-17 02:43:00,
2013-03-16 22:52:00,55.0,55.0,-100.00,NNE,23,0.0,4.0,99,0.00,,,0.02,0.000000,,2013-03-17 02:52:00,
2013-03-16 23:12:00,55.0,55.0,-100.00,NNE,23,0.0,4.0,99,0.00,,,0.02,0.000000,,2013-03-17 03:12:00,
2013-03-16 23:23:00,55.0,55.0,-100.00,NNE,23,0.0,4.0,99,0.00,,,0.02,0.000000,,2013-03-17 03:23:00,
2013-03-16 23:34:00,55.0,55.0,-100.00,NNE,23,0.0,4.0,99,0.00,,,0.02,0.000000,,2013-03-17 03:34:00,
2013-03-16 23:43:00,55.0,55.0,-100.00,NNE,23,0.0,4.0,99,0.00,,,0.02,0.000000,,2013-03-17 03:43:00,
2013-03-16 23:52:00,54.0,54.0,-100.00,WNW,302,0.0,3.0,99,0.00,,,0.02,0.000000,,2013-03-17 03:52:00,